createdAt,value
2022-10-17T00:01:11.013Z,7.94
2022-10-17T00:03:40.262Z,7.97
2022-10-17T00:06:13.182Z,8.00
2022-10-17T00:08:43.137Z,8.03
2022-10-17T00:11:23.865Z,8.02
2022-10-17T00:13:55.415Z,8.03
2022-10-17T00:16:34.056Z,8.01
2022-10-17T00:19:02.778Z,8.00
2022-10-17T00:21:31.203Z,8.00
2022-10-17T00:24:00.441Z,7.97
2022-10-17T00:26:29.672Z,7.98
2022-10-17T00:28:58.393Z,7.98
2022-10-17T00:31:26.845Z,7.98
2022-10-17T00:33:54.950Z,7.98
2022-10-17T00:36:26.140Z,8.01
2022-10-17T00:38:58.514Z,8.01
2022-10-17T00:41:33.267Z,7.99
2022-10-17T00:44:06.356Z,7.95
2022-10-17T00:46:39.200Z,7.93
2022-10-17T00:49:12.595Z,7.91
2022-10-17T00:51:51.150Z,7.89
2022-10-17T00:54:24.506Z,7.87
2022-10-17T00:56:54.713Z,7.84
2022-10-17T00:59:24.603Z,7.79
2022-10-17T01:02:18.820Z,7.78
2022-10-17T01:04:54.989Z,7.80
2022-10-17T01:07:23.416Z,7.77
2022-10-17T01:09:51.591Z,7.77
2022-10-17T01:13:07.382Z,7.78
2022-10-17T01:16:23.169Z,7.78
2022-10-17T01:19:36.772Z,7.76
2022-10-17T01:22:31.133Z,7.74
2022-10-17T01:25:24.233Z,7.70
2022-10-17T01:28:29.942Z,7.67
2022-10-17T01:31:32.261Z,7.64
2022-10-17T01:34:28.032Z,7.59
2022-10-17T01:37:04.265Z,7.56
2022-10-17T01:39:43.979Z,7.54
2022-10-17T01:42:27.587Z,7.54
2022-10-17T01:45:05.598Z,7.52
2022-10-17T01:47:34.712Z,7.49
2022-10-17T01:50:11.625Z,7.48
2022-10-17T01:52:48.050Z,7.47
2022-10-17T01:55:24.592Z,7.45
2022-10-17T01:58:02.544Z,7.44
2022-10-17T02:00:32.390Z,7.43
2022-10-17T02:03:04.818Z,7.43
2022-10-17T02:05:39.439Z,7.41
2022-10-17T02:08:08.183Z,7.40
2022-10-17T02:10:40.704Z,7.34
2022-10-17T02:13:52.469Z,7.27
2022-10-17T02:16:38.799Z,7.19
2022-10-17T02:19:41.096Z,7.12
2022-10-17T02:22:39.525Z,7.04
2022-10-17T02:25:24.119Z,6.98
2022-10-17T02:28:28.640Z,6.91
2022-10-17T02:31:09.028Z,6.86
2022-10-17T02:33:52.743Z,6.83
2022-10-17T02:36:26.088Z,6.79
2022-10-17T02:38:55.883Z,6.74
2022-10-17T02:41:25.315Z,6.69
2022-10-17T02:43:55.717Z,6.65
2022-10-17T02:46:28.715Z,6.59
2022-10-17T02:49:18.839Z,6.52
2022-10-17T02:52:16.440Z,6.46
2022-10-17T02:55:13.837Z,6.40
2022-10-17T02:57:49.738Z,6.36
2022-10-17T03:00:19.884Z,6.31
2022-10-17T03:02:51.319Z,6.26
2022-10-17T03:05:27.252Z,6.22
2022-10-17T03:07:56.953Z,6.18
2022-10-17T03:10:25.841Z,6.13
2022-10-17T03:12:54.080Z,6.08
2022-10-17T03:15:22.152Z,6.05
2022-10-17T03:17:50.208Z,6.03
2022-10-17T03:20:18.788Z,6.00
2022-10-17T03:22:46.996Z,5.97
2022-10-17T03:25:15.223Z,5.93
2022-10-17T03:27:44.051Z,5.89
2022-10-17T03:30:12.363Z,5.86
2022-10-17T03:32:40.564Z,5.85
2022-10-17T03:35:14.006Z,5.85
2022-10-17T03:37:45.298Z,5.85
2022-10-17T03:40:14.800Z,5.82
2022-10-17T03:42:42.845Z,5.78
2022-10-17T03:45:11.456Z,5.75
2022-10-17T03:47:39.582Z,5.73
2022-10-17T03:50:08.251Z,5.70
2022-10-17T03:52:37.236Z,5.68
2022-10-17T03:55:05.932Z,5.66
2022-10-17T03:57:36.664Z,5.66
2022-10-17T04:00:06.951Z,5.65
2022-10-17T04:02:42.405Z,5.63
2022-10-17T04:05:13.867Z,5.59
2022-10-17T04:07:42.174Z,5.58
2022-10-17T04:10:11.810Z,5.58
2022-10-17T04:12:40.129Z,5.56
2022-10-17T04:15:09.216Z,5.52
2022-10-17T04:17:38.349Z,5.47
2022-10-17T04:20:07.919Z,5.42
2022-10-17T04:22:35.951Z,5.40
2022-10-17T04:25:04.458Z,5.40
2022-10-17T04:27:37.767Z,5.40
2022-10-17T04:30:06.730Z,5.37
2022-10-17T04:32:41.432Z,5.35
2022-10-17T04:35:15.026Z,5.34
2022-10-17T04:37:46.853Z,5.31
2022-10-17T04:40:18.816Z,5.29
2022-10-17T04:42:47.262Z,5.30
2022-10-17T04:45:17.652Z,5.28
2022-10-17T04:47:46.384Z,5.28
2022-10-17T04:50:14.409Z,5.28
2022-10-17T04:52:42.449Z,5.27
2022-10-17T04:55:10.524Z,5.26
2022-10-17T04:57:39.353Z,5.26
2022-10-17T05:00:16.133Z,5.27
2022-10-17T05:02:55.227Z,5.26
2022-10-17T05:05:23.399Z,5.27
2022-10-17T05:07:52.731Z,5.28
2022-10-17T05:10:24.720Z,5.26
2022-10-17T05:12:53.679Z,5.20
2022-10-17T05:15:23.781Z,5.20
2022-10-17T05:17:56.730Z,5.23
2022-10-17T05:20:25.992Z,5.27
2022-10-17T05:22:54.486Z,5.31
2022-10-17T05:25:22.828Z,5.37
2022-10-17T05:27:50.930Z,5.43
2022-10-17T05:30:19.072Z,5.50
2022-10-17T05:32:47.667Z,5.56
2022-10-17T05:35:16.484Z,5.62
2022-10-17T05:37:44.517Z,5.68
2022-10-17T05:40:12.797Z,5.73
2022-10-17T05:42:49.661Z,5.78
2022-10-17T05:45:18.667Z,5.84
2022-10-17T05:47:47.298Z,5.90
2022-10-17T05:50:15.592Z,5.94
2022-10-17T05:52:58.261Z,5.99
2022-10-17T05:55:26.318Z,6.04
2022-10-17T05:57:54.607Z,6.08
2022-10-17T06:00:23.149Z,6.13
2022-10-17T06:02:56.339Z,6.19
2022-10-17T06:05:25.393Z,6.23
2022-10-17T06:07:56.974Z,6.29
2022-10-17T06:10:29.099Z,6.41
2022-10-17T06:12:57.603Z,6.58
2022-10-17T06:15:26.785Z,6.73
2022-10-17T06:18:07.148Z,6.88
2022-10-17T06:20:35.264Z,7.03
2022-10-17T06:23:03.751Z,7.18
2022-10-17T06:25:45.842Z,7.32
2022-10-17T06:28:13.924Z,7.42
2022-10-17T06:30:42.088Z,7.54
2022-10-17T06:33:10.113Z,7.66
2022-10-17T06:35:38.166Z,7.74
2022-10-17T06:38:06.569Z,7.85
2022-10-17T06:40:35.944Z,7.95
2022-10-17T06:43:04.024Z,8.03
2022-10-17T06:45:50.877Z,8.16
2022-10-17T06:48:29.210Z,8.28
2022-10-17T06:51:15.237Z,8.38
2022-10-17T06:53:50.205Z,8.47
2022-10-17T06:56:43.465Z,8.56
2022-10-17T06:59:30.038Z,8.65
2022-10-17T07:02:13.047Z,8.76
2022-10-17T07:04:41.051Z,8.86
2022-10-17T07:07:09.082Z,8.97
2022-10-17T07:09:37.662Z,9.06
2022-10-17T07:12:08.335Z,9.15
2022-10-17T07:14:36.371Z,9.24
2022-10-17T07:17:05.327Z,9.33
2022-10-17T07:19:34.507Z,9.44
2022-10-17T07:22:02.655Z,9.53
2022-10-17T07:24:31.668Z,9.63
2022-10-17T07:27:08.106Z,9.72
2022-10-17T07:29:36.444Z,9.79
2022-10-17T07:32:13.320Z,9.89
2022-10-17T07:34:41.450Z,9.98
2022-10-17T07:37:10.778Z,10.04
2022-10-17T07:39:40.554Z,10.09
2022-10-17T07:42:08.893Z,10.12
2022-10-17T07:44:37.055Z,10.19
2022-10-17T07:47:06.043Z,10.25
2022-10-17T07:49:35.550Z,10.30
2022-10-17T07:52:03.560Z,10.35
2022-10-17T07:54:31.613Z,10.39
2022-10-17T07:56:59.760Z,10.42
2022-10-17T07:59:27.847Z,10.45
2022-10-17T08:01:59.670Z,10.51
2022-10-17T08:04:28.484Z,10.58
2022-10-17T08:07:11.345Z,10.63
2022-10-17T08:09:45.231Z,10.67
2022-10-17T08:12:14.944Z,10.65
2022-10-17T08:14:43.397Z,10.63
2022-10-17T08:17:11.455Z,10.58
2022-10-17T08:19:40.752Z,10.55
2022-10-17T08:22:08.832Z,10.53
2022-10-17T08:24:36.857Z,10.50
2022-10-17T08:27:11.406Z,10.49
2022-10-17T08:29:40.941Z,10.49
2022-10-17T08:32:10.196Z,10.47
2022-10-17T08:34:38.519Z,10.45
2022-10-17T08:37:06.615Z,10.42
2022-10-17T08:39:34.692Z,10.41
2022-10-17T08:42:08.565Z,10.42
2022-10-17T08:45:28.021Z,10.40
2022-10-17T08:48:02.536Z,10.38
2022-10-17T08:50:53.054Z,10.38
2022-10-17T08:53:39.886Z,10.41
2022-10-17T08:56:25.037Z,10.43
2022-10-17T08:59:12.760Z,10.47
2022-10-17T09:02:04.176Z,10.50
2022-10-17T09:04:38.243Z,10.54
2022-10-17T09:07:18.813Z,10.57
2022-10-17T09:10:23.560Z,10.59
2022-10-17T09:16:40.868Z,10.67
2022-10-17T09:19:35.970Z,10.72
2022-10-17T09:22:17.030Z,10.80
2022-10-17T09:24:55.542Z,10.86
2022-10-17T09:27:33.685Z,10.89
2022-10-17T09:30:51.564Z,10.92
2022-10-17T09:33:53.269Z,10.96
2022-10-17T09:36:34.910Z,11.02
2022-10-17T09:39:16.751Z,11.07
2022-10-17T09:41:48.248Z,11.13
2022-10-17T09:44:23.897Z,11.19
2022-10-17T09:47:14.241Z,11.25
2022-10-17T09:49:45.774Z,11.29
2022-10-17T09:52:35.251Z,11.33
2022-10-17T09:55:17.690Z,11.40
2022-10-17T09:58:04.361Z,11.50
2022-10-17T10:00:38.065Z,11.58
2022-10-17T10:03:26.549Z,11.65
2022-10-17T10:06:06.586Z,11.71
2022-10-17T10:08:49.244Z,11.77
2022-10-17T10:11:18.677Z,11.83
2022-10-17T10:13:49.356Z,11.91
2022-10-17T10:16:24.909Z,12.01
2022-10-17T10:18:53.025Z,12.07
2022-10-17T10:21:24.727Z,12.11
2022-10-17T10:24:14.984Z,12.15
2022-10-17T10:26:49.939Z,12.22
2022-10-17T10:29:35.683Z,12.31
2022-10-17T10:32:39.488Z,12.41
2022-10-17T10:35:19.681Z,12.44
2022-10-17T10:37:53.452Z,12.51
2022-10-17T10:40:46.132Z,12.58
2022-10-17T10:43:41.039Z,12.60
2022-10-17T10:46:28.694Z,12.66
2022-10-17T10:49:02.215Z,12.72
2022-10-17T10:51:48.039Z,12.80
2022-10-17T10:54:52.247Z,12.89
2022-10-17T10:57:23.215Z,12.96
2022-10-17T11:00:03.220Z,13.10
2022-10-17T11:02:43.127Z,13.27
2022-10-17T11:05:30.316Z,13.42
2022-10-17T11:08:32.857Z,13.55
2022-10-17T11:11:34.527Z,13.71
2022-10-17T11:14:21.541Z,13.84
2022-10-17T11:17:01.104Z,13.94
2022-10-17T11:19:43.937Z,14.05
2022-10-17T11:22:32.785Z,14.18
2022-10-17T11:25:25.872Z,14.25
2022-10-17T11:27:54.316Z,14.33
2022-10-17T11:30:27.044Z,14.41
2022-10-17T11:33:02.252Z,14.49
2022-10-17T11:35:38.025Z,14.61
2022-10-17T11:38:41.991Z,14.68
2022-10-17T11:41:20.829Z,14.80
2022-10-17T11:43:57.111Z,14.90
2022-10-17T11:46:28.670Z,14.95
2022-10-17T11:48:59.539Z,14.99
2022-10-17T11:54:45.789Z,15.08
2022-10-17T11:57:28.982Z,15.12
2022-10-17T12:00:12.168Z,15.13
2022-10-17T12:03:06.421Z,15.17
2022-10-17T12:05:45.432Z,15.23
2022-10-17T12:08:40.422Z,15.31
2022-10-17T12:11:21.830Z,15.40
2022-10-17T12:13:53.785Z,15.46
2022-10-17T12:16:21.866Z,15.50
2022-10-17T12:19:11.524Z,15.47
2022-10-17T12:22:26.053Z,15.43
2022-10-17T12:25:04.075Z,15.41
2022-10-17T12:27:47.344Z,15.38
2022-10-17T12:30:21.541Z,15.36
2022-10-17T12:33:07.517Z,15.34
2022-10-17T12:35:38.347Z,15.32
2022-10-17T12:38:22.913Z,15.29
2022-10-17T12:40:54.320Z,15.22
2022-10-17T12:43:28.296Z,15.16
2022-10-17T12:46:01.419Z,15.12
2022-10-17T12:48:38.567Z,15.12
2022-10-17T12:51:34.119Z,15.11
2022-10-17T12:54:02.227Z,15.14
2022-10-17T12:56:42.245Z,15.18
2022-10-17T12:59:22.456Z,15.19
2022-10-17T13:01:59.157Z,15.23
2022-10-17T13:04:29.488Z,15.24
2022-10-17T13:06:59.191Z,15.25
2022-10-17T13:09:38.673Z,15.26
2022-10-17T13:12:16.190Z,15.28
2022-10-17T13:14:46.780Z,15.30
2022-10-17T13:17:28.278Z,15.31
2022-10-17T13:19:57.792Z,15.30
2022-10-17T13:22:32.710Z,15.29
2022-10-17T13:25:16.627Z,15.29
2022-10-17T13:27:45.780Z,15.30
2022-10-17T13:30:27.996Z,15.28
2022-10-17T13:33:00.659Z,15.28
2022-10-17T13:38:32.455Z,15.32
2022-10-17T13:41:29.980Z,15.33
2022-10-17T13:43:52.118Z,15.32
2022-10-17T13:46:40.050Z,15.31
2022-10-17T13:49:33.879Z,15.34
2022-10-17T13:52:05.281Z,15.38
2022-10-17T13:54:41.843Z,15.40
2022-10-17T13:57:23.244Z,15.42
2022-10-17T14:00:21.802Z,15.45
2022-10-17T14:02:49.830Z,15.46
2022-10-17T14:05:21.198Z,15.48
2022-10-17T14:08:11.484Z,15.48
2022-10-17T14:10:43.208Z,15.45
2022-10-17T14:13:30.249Z,15.46
2022-10-17T14:16:02.265Z,15.48
2022-10-17T14:18:36.677Z,15.51
2022-10-17T14:24:27.074Z,15.48
2022-10-17T14:27:00.537Z,15.47
2022-10-17T14:29:32.182Z,15.43
2022-10-17T14:32:08.562Z,15.40
2022-10-17T14:34:40.542Z,15.39
2022-10-17T14:37:33.473Z,15.38
2022-10-17T14:40:04.988Z,15.37
2022-10-17T14:42:39.433Z,15.37
2022-10-17T14:45:14.713Z,15.36
2022-10-17T14:47:44.194Z,15.34
2022-10-17T14:50:12.680Z,15.33
2022-10-17T14:52:40.865Z,15.32
2022-10-17T14:55:26.436Z,15.30
2022-10-17T14:57:54.653Z,15.26
2022-10-17T15:00:24.200Z,15.21
2022-10-17T15:02:55.538Z,15.17
2022-10-17T15:05:24.908Z,15.13
2022-10-17T15:07:53.742Z,15.10
2022-10-17T15:10:36.921Z,15.07
2022-10-17T15:13:26.810Z,15.01
2022-10-17T15:15:52.964Z,14.92
2022-10-17T15:18:20.960Z,14.87
2022-10-17T15:20:55.332Z,14.82
2022-10-17T15:23:32.775Z,14.77
2022-10-17T15:26:01.825Z,14.71
2022-10-17T15:28:30.010Z,14.68
2022-10-17T15:30:58.132Z,14.65
2022-10-17T15:33:26.182Z,14.62
2022-10-17T15:35:54.433Z,14.59
2022-10-17T15:38:22.540Z,14.55
2022-10-17T15:40:52.060Z,14.50
2022-10-17T15:43:20.291Z,14.44
2022-10-17T15:45:48.905Z,14.39
2022-10-17T15:48:30.208Z,14.35
2022-10-17T15:50:58.473Z,14.30
2022-10-17T15:53:26.683Z,14.26
2022-10-17T15:55:54.909Z,14.23
2022-10-17T15:58:22.955Z,14.19
2022-10-17T16:00:51.101Z,14.15
2022-10-17T16:03:19.250Z,14.09
2022-10-17T16:05:47.548Z,14.05
2022-10-17T16:08:15.544Z,14.02
2022-10-17T16:10:43.692Z,13.98
2022-10-17T16:13:23.359Z,13.93
2022-10-17T16:15:51.736Z,13.88
2022-10-17T16:18:21.190Z,13.83
2022-10-17T16:20:49.225Z,13.77
2022-10-17T16:23:17.319Z,13.73
2022-10-17T16:25:45.569Z,13.67
2022-10-17T16:28:13.612Z,13.61
2022-10-17T16:30:45.057Z,13.54
2022-10-17T16:33:13.295Z,13.46
2022-10-17T16:35:41.333Z,13.40
2022-10-17T16:38:09.370Z,13.35
2022-10-17T16:40:39.968Z,13.30
2022-10-17T16:43:12.590Z,13.25
2022-10-17T16:45:41.103Z,13.21
2022-10-17T16:48:09.749Z,13.16
2022-10-17T16:50:40.241Z,13.11
2022-10-17T16:53:08.352Z,13.06
2022-10-17T16:55:36.409Z,13.01
2022-10-17T16:58:04.590Z,12.95
2022-10-17T17:00:32.699Z,12.90
2022-10-17T17:03:00.755Z,12.85
2022-10-17T17:05:28.799Z,12.82
2022-10-17T17:07:56.804Z,12.77
2022-10-17T17:10:24.837Z,12.74
2022-10-17T17:12:52.876Z,12.69
2022-10-17T17:15:20.871Z,12.65
2022-10-17T17:17:52.448Z,12.60
2022-10-17T17:20:23.392Z,12.56
2022-10-17T17:22:52.376Z,12.55
2022-10-17T17:25:22.071Z,12.53
2022-10-17T17:27:50.224Z,12.51
2022-10-17T17:30:18.587Z,12.48
2022-10-17T17:32:46.617Z,12.44
2022-10-17T17:35:14.900Z,12.39
2022-10-17T17:37:42.957Z,12.35
2022-10-17T17:40:11.598Z,12.31
2022-10-17T17:42:39.651Z,12.28
2022-10-17T17:45:08.633Z,12.23
2022-10-17T17:47:36.670Z,12.19
2022-10-17T17:50:05.189Z,12.15
2022-10-17T17:52:33.427Z,12.11
2022-10-17T17:55:01.687Z,12.09
2022-10-17T17:57:30.207Z,12.07
2022-10-17T17:59:58.290Z,12.05
2022-10-17T18:02:26.314Z,12.03
2022-10-17T18:04:54.309Z,11.98
2022-10-17T18:07:23.464Z,11.92
2022-10-17T18:09:51.744Z,11.88
2022-10-17T18:12:19.758Z,11.83
2022-10-17T18:14:47.927Z,11.80
2022-10-17T18:17:16.063Z,11.79
2022-10-17T18:19:44.067Z,11.77
2022-10-17T18:22:12.231Z,11.75
2022-10-17T18:24:40.879Z,11.72
2022-10-17T18:27:08.908Z,11.70
2022-10-17T18:29:37.376Z,11.76
2022-10-17T18:32:05.725Z,11.82
2022-10-17T18:34:33.693Z,11.85
2022-10-17T18:37:02.626Z,11.88
2022-10-17T18:39:30.913Z,11.91
2022-10-17T18:41:59.107Z,11.93
2022-10-17T18:44:27.507Z,11.96
2022-10-17T18:46:58.569Z,11.99
2022-10-17T18:49:29.573Z,12.01
2022-10-17T18:51:57.593Z,12.01
2022-10-17T18:54:25.756Z,12.02
2022-10-17T18:56:55.202Z,12.03
2022-10-17T18:59:23.470Z,12.03
2022-10-17T19:01:51.497Z,12.03
2022-10-17T19:04:19.573Z,12.03
2022-10-17T19:06:47.585Z,12.01
2022-10-17T19:09:16.346Z,12.00
2022-10-17T19:11:44.371Z,11.98
2022-10-17T19:14:13.687Z,11.95
2022-10-17T19:16:46.431Z,11.97
2022-10-17T19:19:24.241Z,11.96
2022-10-17T19:21:53.179Z,11.93
2022-10-17T19:24:25.390Z,11.91
2022-10-17T19:26:56.666Z,11.89
2022-10-17T19:29:31.850Z,11.87
2022-10-17T19:32:01.109Z,11.84
2022-10-17T19:34:29.377Z,11.81
2022-10-17T19:36:57.445Z,11.80
2022-10-17T19:39:26.602Z,11.78
2022-10-17T19:41:54.707Z,11.76
2022-10-17T19:44:22.837Z,11.72
2022-10-17T19:46:50.894Z,11.70
2022-10-17T19:49:18.943Z,11.67
2022-10-17T19:51:47.156Z,11.65
2022-10-17T19:54:18.259Z,11.63
2022-10-17T19:56:46.808Z,11.61
2022-10-17T19:59:16.651Z,11.57
2022-10-17T20:01:45.592Z,11.53
2022-10-17T20:04:13.908Z,11.50
2022-10-17T20:06:42.364Z,11.48
2022-10-17T20:09:15.679Z,11.44
2022-10-17T20:11:45.734Z,11.41
2022-10-17T20:14:13.850Z,11.40
2022-10-17T20:16:44.690Z,11.37
2022-10-17T20:19:13.590Z,11.36
2022-10-17T20:21:42.528Z,11.36
2022-10-17T20:24:14.951Z,11.32
2022-10-17T20:26:44.327Z,11.26
2022-10-17T20:29:19.880Z,11.17
2022-10-17T20:31:48.349Z,11.11
2022-10-17T20:34:18.200Z,11.05
2022-10-17T20:36:47.408Z,10.98
2022-10-17T20:39:18.110Z,10.93
2022-10-17T20:41:46.756Z,10.87
2022-10-17T20:44:14.868Z,10.81
2022-10-17T20:47:00.575Z,10.74
2022-10-17T20:49:30.762Z,10.67
2022-10-17T20:52:00.618Z,10.58
2022-10-17T20:54:28.915Z,10.50
2022-10-17T20:56:59.895Z,10.44
2022-10-17T20:59:31.143Z,10.39
2022-10-17T21:01:59.170Z,10.30
2022-10-17T21:04:46.677Z,10.23
2022-10-17T21:07:15.856Z,10.16
2022-10-17T21:09:45.377Z,10.10
2022-10-17T21:12:21.550Z,10.06
2022-10-17T21:15:00.349Z,10.00
2022-10-17T21:17:28.459Z,9.95
2022-10-17T21:19:56.566Z,9.92
2022-10-17T21:22:24.981Z,9.86
2022-10-17T21:24:53.076Z,9.81
2022-10-17T21:27:21.088Z,9.77
2022-10-17T21:29:49.116Z,9.74
2022-10-17T21:32:31.901Z,9.70
2022-10-17T21:35:05.803Z,9.67
2022-10-17T21:37:33.975Z,9.62
2022-10-17T21:40:02.129Z,9.60
2022-10-17T21:42:30.489Z,9.57
2022-10-17T21:44:59.087Z,9.53
2022-10-17T21:47:27.776Z,9.49
2022-10-17T21:49:56.155Z,9.47
2022-10-17T21:52:24.336Z,9.44
2022-10-17T21:54:52.345Z,9.37
2022-10-17T21:57:20.396Z,9.34
2022-10-17T21:59:48.516Z,9.32
2022-10-17T22:02:16.511Z,9.30
2022-10-17T22:04:44.544Z,9.27
2022-10-17T22:07:12.617Z,9.25
2022-10-17T22:09:40.661Z,9.22
2022-10-17T22:12:08.655Z,9.18
2022-10-17T22:14:36.685Z,9.16
2022-10-17T22:17:04.749Z,9.14
2022-10-17T22:19:32.911Z,9.11
2022-10-17T22:22:00.881Z,9.09
2022-10-17T22:24:28.979Z,9.07
2022-10-17T22:26:57.016Z,9.07
2022-10-17T22:29:25.056Z,9.06
2022-10-17T22:31:53.113Z,9.05
2022-10-17T22:34:21.080Z,9.01
2022-10-17T22:36:49.164Z,8.99
2022-10-17T22:39:17.416Z,8.97
2022-10-17T22:41:45.394Z,8.92
2022-10-17T22:44:13.475Z,8.90
2022-10-17T22:46:41.490Z,8.89
2022-10-17T22:49:09.495Z,8.87
2022-10-17T22:51:37.491Z,8.84
2022-10-17T22:54:05.481Z,8.80
2022-10-17T22:56:33.560Z,8.78
2022-10-17T22:59:01.555Z,8.76
2022-10-17T23:01:29.748Z,8.73
2022-10-17T23:03:58.008Z,8.70
2022-10-17T23:06:26.062Z,8.66
2022-10-17T23:08:54.191Z,8.62
2022-10-17T23:11:22.835Z,8.60
2022-10-17T23:13:50.807Z,8.59
2022-10-17T23:16:18.912Z,8.57
2022-10-17T23:18:46.994Z,8.56
2022-10-17T23:21:15.526Z,8.55
2022-10-17T23:23:43.519Z,8.52
2022-10-17T23:26:14.356Z,8.49
2022-10-17T23:28:42.930Z,8.47
2022-10-17T23:31:18.029Z,8.43
2022-10-17T23:33:48.975Z,8.42
2022-10-17T23:36:20.418Z,8.39
2022-10-17T23:38:49.738Z,8.37
2022-10-17T23:41:18.839Z,8.35
2022-10-17T23:43:46.878Z,8.33
2022-10-17T23:46:14.924Z,8.32
2022-10-17T23:48:43.164Z,8.29
2022-10-17T23:51:11.508Z,8.24
2022-10-17T23:53:40.489Z,8.20
2022-10-17T23:56:10.156Z,8.15
2022-10-17T23:58:39.414Z,8.10
